createdAt,value
2023-03-31T00:00:34.058Z,12.80
2023-03-31T00:02:37.146Z,12.80
2023-03-31T00:04:52.348Z,12.90
2023-03-31T00:06:54.784Z,12.90
2023-03-31T00:09:01.801Z,12.90
2023-03-31T00:11:07.204Z,13.00
2023-03-31T00:13:10.275Z,13.00
2023-03-31T00:15:12.204Z,13.00
2023-03-31T00:17:14.551Z,13.00
2023-03-31T00:19:19.894Z,13.00
2023-03-31T00:21:29.749Z,13.00
2023-03-31T00:23:33.951Z,13.10
2023-03-31T00:25:35.771Z,13.10
2023-03-31T00:27:37.701Z,13.10
2023-03-31T00:29:41.558Z,13.10
2023-03-31T00:31:43.441Z,13.10
2023-03-31T00:33:45.257Z,13.10
2023-03-31T00:35:54.476Z,13.10
2023-03-31T00:37:57.889Z,13.10
2023-03-31T00:40:02.128Z,13.10
2023-03-31T00:42:12.975Z,13.10
2023-03-31T00:44:18.734Z,13.10
2023-03-31T00:46:30.809Z,13.10
2023-03-31T00:48:36.512Z,13.10
2023-03-31T00:50:48.866Z,13.10
2023-03-31T00:52:56.097Z,13.10
2023-03-31T00:55:07.585Z,13.10
2023-03-31T00:57:11.179Z,13.20
2023-03-31T00:59:13.320Z,13.10
2023-03-31T01:01:19.277Z,13.20
2023-03-31T01:03:25.236Z,13.10
2023-03-31T01:05:32.665Z,13.10
2023-03-31T01:07:43.861Z,13.10
2023-03-31T01:09:47.734Z,13.10
2023-03-31T01:11:49.830Z,13.10
2023-03-31T01:13:56.092Z,13.10
2023-03-31T01:15:58.532Z,13.10
2023-03-31T01:18:03.623Z,13.10
2023-03-31T01:20:29.848Z,13.00
2023-03-31T01:23:00.114Z,13.10
2023-03-31T01:25:21.533Z,13.10
2023-03-31T01:27:50.802Z,13.00
2023-03-31T01:30:15.730Z,13.00
2023-03-31T01:32:32.299Z,13.00
2023-03-31T01:35:09.457Z,12.90
2023-03-31T01:37:32.672Z,13.00
2023-03-31T01:40:09.339Z,12.90
2023-03-31T01:42:20.753Z,13.00
2023-03-31T01:44:48.283Z,12.90
2023-03-31T01:46:58.049Z,12.90
2023-03-31T01:49:29.483Z,12.90
2023-03-31T01:52:03.331Z,12.90
2023-03-31T01:54:20.268Z,12.90
2023-03-31T01:56:31.470Z,12.90
2023-03-31T01:58:53.496Z,12.80
2023-03-31T02:01:16.892Z,12.70
2023-03-31T02:03:25.165Z,12.60
2023-03-31T02:05:33.493Z,12.60
2023-03-31T02:07:46.182Z,12.60
2023-03-31T02:09:58.867Z,12.60
2023-03-31T02:12:06.004Z,12.60
2023-03-31T02:14:12.023Z,12.60
2023-03-31T02:16:19.532Z,12.60
2023-03-31T02:18:26.115Z,12.50
2023-03-31T02:20:32.539Z,12.50
2023-03-31T02:22:40.248Z,12.50
2023-03-31T02:24:44.396Z,12.50
2023-03-31T02:27:05.446Z,12.50
2023-03-31T02:29:07.905Z,12.40
2023-03-31T02:31:26.924Z,12.40
2023-03-31T02:33:29.690Z,12.40
2023-03-31T02:35:36.250Z,12.40
2023-03-31T02:37:42.527Z,12.40
2023-03-31T02:39:47.345Z,12.30
2023-03-31T02:41:49.717Z,12.40
2023-03-31T02:43:52.257Z,12.30
2023-03-31T02:45:57.021Z,12.40
2023-03-31T02:47:58.866Z,12.40
2023-03-31T02:50:02.929Z,12.40
2023-03-31T02:52:22.390Z,12.40
2023-03-31T02:54:39.058Z,12.50
2023-03-31T02:56:52.901Z,12.40
2023-03-31T02:59:28.887Z,12.40
2023-03-31T03:01:56.091Z,12.40
2023-03-31T03:04:34.098Z,12.50
2023-03-31T03:07:16.368Z,12.50
2023-03-31T03:09:29.822Z,12.50
2023-03-31T03:11:36.963Z,12.50
2023-03-31T03:13:53.712Z,12.50
2023-03-31T03:16:18.728Z,12.50
2023-03-31T03:18:23.358Z,12.50
2023-03-31T03:20:25.400Z,12.50
2023-03-31T03:22:27.203Z,12.40
2023-03-31T03:24:34.383Z,12.40
2023-03-31T03:26:36.719Z,12.50
2023-03-31T03:28:39.313Z,12.50
2023-03-31T03:30:46.499Z,12.40
2023-03-31T03:32:48.307Z,12.50
2023-03-31T03:34:52.603Z,12.40
2023-03-31T03:36:56.366Z,12.40
2023-03-31T03:38:58.289Z,12.40
2023-03-31T03:41:02.327Z,12.40
2023-03-31T03:43:04.035Z,12.40
2023-03-31T03:45:06.803Z,12.40
2023-03-31T03:47:08.495Z,12.40
2023-03-31T03:49:10.135Z,12.30
2023-03-31T03:51:14.364Z,12.30
2023-03-31T03:53:16.114Z,12.30
2023-03-31T03:55:20.786Z,12.30
2023-03-31T03:57:22.659Z,12.30
2023-03-31T03:59:24.708Z,12.30
2023-03-31T04:01:28.181Z,12.30
2023-03-31T04:03:30.040Z,12.30
2023-03-31T04:05:34.047Z,12.30
2023-03-31T04:07:35.720Z,12.20
2023-03-31T04:09:39.616Z,12.30
2023-03-31T04:11:41.873Z,12.30
2023-03-31T04:13:44.823Z,12.20
2023-03-31T04:15:48.950Z,12.20
2023-03-31T04:17:51.121Z,12.20
2023-03-31T04:19:52.955Z,12.20
2023-03-31T04:22:05.471Z,12.20
2023-03-31T04:24:07.487Z,12.20
2023-03-31T04:26:09.845Z,12.10
2023-03-31T04:28:14.468Z,12.10
2023-03-31T04:30:23.208Z,12.10
2023-03-31T04:32:26.448Z,12.10
2023-03-31T04:34:36.177Z,12.10
2023-03-31T04:36:42.501Z,12.10
2023-03-31T04:38:50.551Z,12.10
2023-03-31T04:40:57.958Z,12.10
2023-03-31T04:42:59.645Z,12.10
2023-03-31T04:45:01.661Z,12.10
2023-03-31T04:47:03.774Z,12.10
2023-03-31T04:49:05.904Z,12.10
2023-03-31T04:51:09.269Z,12.10
2023-03-31T04:53:13.683Z,12.10
2023-03-31T04:55:18.961Z,12.10
2023-03-31T04:57:21.415Z,12.10
2023-03-31T04:59:23.196Z,12.10
2023-03-31T05:01:24.958Z,12.10
2023-03-31T05:03:28.993Z,12.10
2023-03-31T05:05:30.839Z,12.20
2023-03-31T05:07:34.940Z,12.20
2023-03-31T05:09:36.606Z,12.20
2023-03-31T05:11:39.914Z,12.20
2023-03-31T05:13:41.726Z,12.20
2023-03-31T05:15:45.286Z,12.20
2023-03-31T05:17:47.034Z,12.20
2023-03-31T05:19:49.179Z,12.20
2023-03-31T05:21:50.898Z,12.20
2023-03-31T05:23:53.224Z,12.20
2023-03-31T05:25:54.836Z,12.20
2023-03-31T05:27:56.651Z,12.20
2023-03-31T05:29:58.571Z,12.20
2023-03-31T05:32:00.478Z,12.20
2023-03-31T05:34:04.703Z,12.30
2023-03-31T05:36:11.035Z,12.30
2023-03-31T05:38:12.809Z,12.30
2023-03-31T05:40:15.322Z,12.30
2023-03-31T05:42:17.528Z,12.30
2023-03-31T05:44:21.810Z,12.40
2023-03-31T05:46:23.793Z,12.40
2023-03-31T05:48:25.651Z,12.40
2023-03-31T05:50:27.551Z,12.40
2023-03-31T05:52:29.264Z,12.40
2023-03-31T05:54:31.128Z,12.40
2023-03-31T05:56:32.830Z,12.40
2023-03-31T05:58:36.246Z,12.40
2023-03-31T06:00:38.122Z,12.40
2023-03-31T06:02:40.981Z,12.40
2023-03-31T06:04:44.032Z,12.40
2023-03-31T06:06:46.171Z,12.40
2023-03-31T06:08:48.170Z,12.40
2023-03-31T06:10:49.965Z,12.30
2023-03-31T06:12:51.888Z,12.40
2023-03-31T06:14:53.593Z,12.40
2023-03-31T06:16:57.674Z,12.40
2023-03-31T06:19:01.896Z,12.30
2023-03-31T06:21:07.727Z,12.30
2023-03-31T06:23:11.778Z,12.30
2023-03-31T06:25:13.543Z,12.30
2023-03-31T06:27:16.883Z,12.30
2023-03-31T06:29:19.293Z,12.30
2023-03-31T06:31:24.384Z,12.30
2023-03-31T06:33:28.507Z,12.30
2023-03-31T06:35:31.568Z,12.30
2023-03-31T06:37:33.357Z,12.30
2023-03-31T06:39:35.123Z,12.30
2023-03-31T06:41:38.689Z,12.20
2023-03-31T06:43:42.823Z,12.30
2023-03-31T06:45:44.665Z,12.30
2023-03-31T06:47:48.883Z,12.30
2023-03-31T06:49:50.646Z,12.30
2023-03-31T06:51:52.501Z,12.30
2023-03-31T06:53:54.988Z,12.30
2023-03-31T06:55:56.750Z,12.30
2023-03-31T06:58:00.776Z,12.30
2023-03-31T07:00:03.908Z,12.30
2023-03-31T07:02:06.833Z,12.30
2023-03-31T07:04:08.526Z,12.20
2023-03-31T07:06:15.497Z,12.30
2023-03-31T07:08:22.340Z,12.30
2023-03-31T07:10:28.252Z,12.30
2023-03-31T07:12:32.983Z,12.30
2023-03-31T07:14:39.588Z,12.30
2023-03-31T07:16:42.798Z,12.30
2023-03-31T07:18:47.438Z,12.30
2023-03-31T07:20:50.429Z,12.30
2023-03-31T07:22:52.219Z,12.30
2023-03-31T07:24:53.942Z,12.40
2023-03-31T07:26:55.684Z,12.40
2023-03-31T07:28:57.694Z,12.40
2023-03-31T07:30:59.884Z,12.40
2023-03-31T07:33:02.009Z,12.40
2023-03-31T07:35:10.647Z,12.40
2023-03-31T07:37:12.348Z,12.50
2023-03-31T07:39:14.150Z,12.50
2023-03-31T07:41:18.749Z,12.50
2023-03-31T07:43:20.727Z,12.50
2023-03-31T07:45:24.832Z,12.50
2023-03-31T07:47:27.604Z,12.50
2023-03-31T07:49:29.282Z,12.60
2023-03-31T07:51:31.174Z,12.60
2023-03-31T07:53:35.064Z,12.60
2023-03-31T07:55:37.141Z,12.60
2023-03-31T07:57:40.392Z,12.60
2023-03-31T07:59:43.805Z,12.70
2023-03-31T08:01:45.534Z,12.70
2023-03-31T08:03:48.465Z,12.80
2023-03-31T08:05:54.134Z,12.80
2023-03-31T08:07:56.038Z,12.80
2023-03-31T08:09:58.559Z,12.80
2023-03-31T08:12:01.570Z,12.90
2023-03-31T08:14:03.307Z,12.90
2023-03-31T08:16:05.676Z,12.90
2023-03-31T08:18:09.628Z,12.90
2023-03-31T08:20:12.442Z,13.00
2023-03-31T08:22:14.119Z,13.00
2023-03-31T08:24:16.049Z,13.10
2023-03-31T08:26:24.617Z,13.20
2023-03-31T08:28:26.359Z,13.20
2023-03-31T08:30:28.022Z,13.20
2023-03-31T08:32:30.673Z,13.20
2023-03-31T08:34:32.436Z,13.20
2023-03-31T08:36:34.187Z,13.30
2023-03-31T08:38:46.057Z,13.20
2023-03-31T08:40:51.981Z,13.20
2023-03-31T08:42:56.812Z,13.10
2023-03-31T08:45:13.803Z,13.00
2023-03-31T08:47:22.952Z,12.80
2023-03-31T08:49:26.067Z,12.80
2023-03-31T08:51:29.549Z,12.50
2023-03-31T08:53:48.157Z,12.40
2023-03-31T08:55:56.004Z,12.30
2023-03-31T08:58:07.959Z,12.20
2023-03-31T09:00:19.185Z,12.20
2023-03-31T09:02:58.577Z,12.10
2023-03-31T09:05:07.028Z,12.20
2023-03-31T09:07:34.790Z,12.20
2023-03-31T09:10:02.440Z,12.20
2023-03-31T09:12:46.036Z,12.20
2023-03-31T09:14:53.032Z,12.30
2023-03-31T09:17:22.412Z,12.40
2023-03-31T09:19:39.164Z,12.50
2023-03-31T09:21:44.695Z,12.60
2023-03-31T09:23:57.237Z,12.60
2023-03-31T09:26:01.391Z,12.60
2023-03-31T09:28:06.993Z,12.70
2023-03-31T09:30:17.848Z,12.70
2023-03-31T09:32:32.570Z,12.70
2023-03-31T09:34:36.156Z,12.80
2023-03-31T09:36:37.839Z,12.80
2023-03-31T09:38:42.108Z,12.80
2023-03-31T09:40:44.038Z,12.90
2023-03-31T09:42:49.221Z,12.80
2023-03-31T09:44:51.192Z,12.80
2023-03-31T09:46:54.499Z,12.90
2023-03-31T09:49:06.081Z,13.00
2023-03-31T09:51:27.363Z,13.00
2023-03-31T09:53:51.258Z,13.10
2023-03-31T09:55:56.869Z,13.10
2023-03-31T09:58:01.774Z,13.20
2023-03-31T10:00:24.246Z,13.20
2023-03-31T10:02:53.102Z,13.20
2023-03-31T10:04:59.213Z,13.40
2023-03-31T10:07:03.643Z,13.40
2023-03-31T10:09:06.232Z,13.50
2023-03-31T10:11:11.392Z,13.50
2023-03-31T10:13:16.958Z,13.60
2023-03-31T10:15:27.347Z,13.60
2023-03-31T10:17:34.006Z,13.60
2023-03-31T10:19:57.031Z,13.70
2023-03-31T10:22:17.206Z,13.70
2023-03-31T10:24:19.824Z,13.80
2023-03-31T10:26:26.324Z,13.80
2023-03-31T10:28:35.887Z,13.80
2023-03-31T10:30:40.473Z,13.90
2023-03-31T10:32:46.724Z,13.90
2023-03-31T10:34:50.025Z,14.00
2023-03-31T10:36:54.173Z,14.00
2023-03-31T10:38:56.775Z,14.00
2023-03-31T10:41:01.961Z,14.00
2023-03-31T10:43:15.794Z,14.10
2023-03-31T10:45:37.036Z,14.10
2023-03-31T10:47:41.377Z,14.20
2023-03-31T10:49:45.021Z,14.20
2023-03-31T10:51:57.721Z,14.20
2023-03-31T10:54:03.319Z,14.30
2023-03-31T10:56:22.874Z,14.30
2023-03-31T10:58:27.286Z,14.40
2023-03-31T11:00:39.261Z,14.40
2023-03-31T11:03:18.602Z,14.60
2023-03-31T11:06:17.568Z,14.50
2023-03-31T11:08:36.967Z,14.50
2023-03-31T11:10:53.683Z,14.50
2023-03-31T11:13:21.433Z,14.40
2023-03-31T11:15:30.892Z,14.40
2023-03-31T11:17:57.090Z,14.30
2023-03-31T11:20:05.576Z,14.30
2023-03-31T11:22:25.617Z,14.20
2023-03-31T11:24:53.369Z,14.20
2023-03-31T11:27:19.907Z,14.20
2023-03-31T11:29:42.628Z,14.30
2023-03-31T11:31:56.071Z,14.30
2023-03-31T11:34:21.010Z,14.30
2023-03-31T11:36:57.356Z,14.40
2023-03-31T11:39:20.501Z,14.40
2023-03-31T11:41:45.530Z,14.30
2023-03-31T11:43:51.479Z,14.40
2023-03-31T11:46:07.300Z,14.40
2023-03-31T11:48:33.374Z,14.50
2023-03-31T11:50:39.762Z,14.50
2023-03-31T11:52:50.870Z,14.50
2023-03-31T11:55:17.708Z,14.60
2023-03-31T11:57:30.084Z,14.50
2023-03-31T11:59:32.792Z,14.50
2023-03-31T12:02:11.092Z,14.40
2023-03-31T12:04:36.700Z,14.40
2023-03-31T12:06:42.812Z,14.40
2023-03-31T12:09:09.582Z,14.40
2023-03-31T12:11:17.300Z,14.50
2023-03-31T12:13:46.083Z,14.40
2023-03-31T12:16:11.320Z,14.40
2023-03-31T12:18:24.741Z,14.40
2023-03-31T12:20:41.457Z,14.40
2023-03-31T12:22:48.429Z,14.30
2023-03-31T12:24:52.307Z,14.20
2023-03-31T12:27:14.101Z,14.30
2023-03-31T12:29:42.258Z,14.30
2023-03-31T12:31:46.107Z,14.40
2023-03-31T12:34:04.978Z,14.50
2023-03-31T12:36:40.191Z,14.50
2023-03-31T12:39:03.645Z,14.70
2023-03-31T12:41:23.790Z,14.90
2023-03-31T12:43:44.110Z,15.00
2023-03-31T12:46:07.019Z,15.10
2023-03-31T12:48:27.930Z,15.20
2023-03-31T12:50:57.216Z,15.20
2023-03-31T12:53:10.519Z,15.20
2023-03-31T12:55:31.560Z,15.20
2023-03-31T12:57:33.429Z,15.10
2023-03-31T12:59:37.769Z,15.10
2023-03-31T13:02:23.522Z,15.10
2023-03-31T13:04:27.276Z,15.20
2023-03-31T13:06:31.786Z,15.10
2023-03-31T13:08:57.428Z,15.10
2023-03-31T13:10:59.783Z,15.00
2023-03-31T13:13:16.108Z,15.00
2023-03-31T13:15:18.140Z,14.90
2023-03-31T13:17:41.314Z,14.80
2023-03-31T13:19:43.054Z,14.80
2023-03-31T13:21:56.147Z,14.80
2023-03-31T13:24:01.602Z,14.70
2023-03-31T13:26:03.742Z,14.60
2023-03-31T13:28:22.249Z,14.60
2023-03-31T13:30:36.139Z,14.60
2023-03-31T13:32:39.083Z,14.60
2023-03-31T13:34:52.323Z,14.50
2023-03-31T13:37:08.921Z,14.40
2023-03-31T13:39:49.218Z,14.40
2023-03-31T13:42:17.614Z,14.40
2023-03-31T13:44:50.980Z,14.40
2023-03-31T13:47:32.348Z,14.40
2023-03-31T13:49:59.728Z,14.40
2023-03-31T13:52:04.105Z,14.30
2023-03-31T13:54:19.533Z,14.40
2023-03-31T13:56:42.907Z,14.30
2023-03-31T13:59:05.805Z,14.40
2023-03-31T14:01:49.209Z,14.40
2023-03-31T14:04:05.689Z,14.40
2023-03-31T14:06:33.590Z,14.40
2023-03-31T14:08:52.663Z,14.40
2023-03-31T14:10:54.571Z,14.50
2023-03-31T14:13:09.088Z,14.50
2023-03-31T14:15:21.238Z,14.50
2023-03-31T14:17:43.781Z,14.50
2023-03-31T14:20:10.585Z,14.60
2023-03-31T14:22:39.337Z,14.60
2023-03-31T14:25:16.328Z,14.60
2023-03-31T14:27:34.102Z,14.50
2023-03-31T14:29:47.354Z,14.50
2023-03-31T14:32:09.890Z,14.60
2023-03-31T14:34:25.454Z,14.70
2023-03-31T14:36:42.089Z,14.60
2023-03-31T14:38:45.075Z,14.60
2023-03-31T14:40:56.149Z,14.70
2023-03-31T14:42:59.088Z,14.60
2023-03-31T14:45:25.677Z,14.70
2023-03-31T14:47:30.285Z,14.70
2023-03-31T14:49:38.455Z,14.70
2023-03-31T14:51:46.705Z,14.70
2023-03-31T14:53:48.394Z,14.80
2023-03-31T14:55:58.577Z,14.80
2023-03-31T14:58:02.126Z,14.90
2023-03-31T15:00:09.796Z,14.90
2023-03-31T15:02:17.814Z,14.90
2023-03-31T15:04:28.812Z,14.90
2023-03-31T15:06:42.583Z,14.90
2023-03-31T15:08:45.474Z,14.90
2023-03-31T15:11:05.984Z,14.90
2023-03-31T15:13:28.516Z,14.80
2023-03-31T15:15:33.190Z,14.90
2023-03-31T15:17:43.530Z,14.70
2023-03-31T15:19:45.267Z,14.80
2023-03-31T15:21:56.068Z,14.70
2023-03-31T15:23:58.692Z,14.70
2023-03-31T15:26:08.145Z,14.70
2023-03-31T15:28:20.347Z,14.60
2023-03-31T15:30:25.356Z,14.60
2023-03-31T15:32:29.651Z,14.50
2023-03-31T15:34:34.024Z,14.60
2023-03-31T15:36:35.749Z,14.50
2023-03-31T15:38:37.865Z,14.50
2023-03-31T15:40:41.424Z,14.50
2023-03-31T15:42:55.011Z,14.50
2023-03-31T15:45:17.200Z,14.40
2023-03-31T15:47:22.404Z,14.30
2023-03-31T15:49:27.737Z,14.30
2023-03-31T15:51:41.655Z,14.30
2023-03-31T15:53:48.977Z,14.20
2023-03-31T15:55:56.661Z,14.10
2023-03-31T15:58:00.754Z,14.10
2023-03-31T16:00:06.092Z,14.00
2023-03-31T16:02:19.588Z,13.90
2023-03-31T16:04:21.686Z,13.90
2023-03-31T16:06:35.558Z,13.90
2023-03-31T16:08:48.585Z,13.90
2023-03-31T16:11:05.208Z,13.90
2023-03-31T16:13:10.577Z,13.80
2023-03-31T16:15:19.768Z,13.80
2023-03-31T16:17:33.540Z,13.80
2023-03-31T16:20:00.286Z,13.80
2023-03-31T16:22:04.718Z,13.80
2023-03-31T16:24:07.288Z,13.60
2023-03-31T16:26:09.108Z,13.70
2023-03-31T16:28:20.932Z,13.70
2023-03-31T16:30:37.238Z,13.70
2023-03-31T16:32:39.126Z,13.70
2023-03-31T16:35:00.278Z,13.60
2023-03-31T16:37:09.581Z,13.70
2023-03-31T16:39:11.356Z,13.60
2023-03-31T16:41:15.750Z,13.70
2023-03-31T16:43:25.723Z,13.70
2023-03-31T16:45:27.594Z,13.70
2023-03-31T16:47:35.505Z,13.60
2023-03-31T16:49:37.992Z,13.60
2023-03-31T16:51:42.000Z,13.70
2023-03-31T16:53:47.160Z,13.60
2023-03-31T16:55:49.780Z,13.60
2023-03-31T16:57:55.732Z,13.70
2023-03-31T17:00:00.496Z,13.70
2023-03-31T17:02:04.312Z,13.70
2023-03-31T17:04:05.963Z,13.70
2023-03-31T17:06:11.254Z,13.60
2023-03-31T17:08:13.984Z,13.60
2023-03-31T17:10:16.294Z,13.60
2023-03-31T17:12:17.955Z,13.60
2023-03-31T17:14:19.862Z,13.50
2023-03-31T17:16:29.841Z,13.50
2023-03-31T17:18:42.338Z,13.50
2023-03-31T17:20:44.136Z,13.40
2023-03-31T17:22:46.893Z,13.40
2023-03-31T17:24:56.810Z,13.40
2023-03-31T17:27:03.297Z,13.40
2023-03-31T17:29:05.626Z,13.40
2023-03-31T17:31:18.862Z,13.30
2023-03-31T17:33:21.204Z,13.30
2023-03-31T17:35:23.564Z,13.30
2023-03-31T17:37:27.211Z,13.30
2023-03-31T17:39:29.410Z,13.30
2023-03-31T17:41:31.874Z,13.40
2023-03-31T17:43:45.100Z,13.40
2023-03-31T17:45:47.516Z,13.40
2023-03-31T17:47:49.713Z,13.40
2023-03-31T17:49:51.827Z,13.40
2023-03-31T17:51:53.656Z,13.40
2023-03-31T17:53:56.199Z,13.40
2023-03-31T17:55:57.879Z,13.40
2023-03-31T17:57:59.584Z,13.30
2023-03-31T18:00:01.442Z,13.30
2023-03-31T18:02:15.285Z,13.30
2023-03-31T18:04:19.320Z,13.30
2023-03-31T18:06:26.201Z,13.30
2023-03-31T18:08:30.200Z,13.30
2023-03-31T18:10:32.686Z,13.30
2023-03-31T18:12:36.450Z,13.30
2023-03-31T18:14:40.315Z,13.30
2023-03-31T18:16:42.375Z,13.30
2023-03-31T18:18:44.048Z,13.20
2023-03-31T18:20:45.916Z,13.20
2023-03-31T18:22:47.703Z,13.30
2023-03-31T18:24:49.418Z,13.20
2023-03-31T18:26:51.438Z,13.20
2023-03-31T18:28:56.117Z,13.10
2023-03-31T18:30:57.828Z,13.10
2023-03-31T18:32:59.665Z,13.10
2023-03-31T18:35:01.658Z,13.00
2023-03-31T18:37:10.074Z,13.00
2023-03-31T18:39:12.240Z,12.90
2023-03-31T18:41:17.632Z,12.90
2023-03-31T18:43:26.089Z,13.00
2023-03-31T18:45:28.138Z,12.90
2023-03-31T18:47:29.905Z,13.00
2023-03-31T18:49:31.709Z,12.90
2023-03-31T18:51:33.451Z,12.80
2023-03-31T18:53:35.305Z,12.90
2023-03-31T18:55:37.125Z,12.80
2023-03-31T18:57:38.803Z,12.80
2023-03-31T18:59:43.365Z,12.80
2023-03-31T19:01:45.076Z,12.80
2023-03-31T19:03:47.659Z,12.80
2023-03-31T19:05:52.412Z,12.80
2023-03-31T19:07:56.516Z,12.80
2023-03-31T19:09:58.206Z,12.70
2023-03-31T19:12:01.352Z,12.80
2023-03-31T19:14:03.089Z,12.70
2023-03-31T19:16:05.641Z,12.70
2023-03-31T19:18:08.288Z,12.70
2023-03-31T19:20:16.351Z,12.70
2023-03-31T19:22:20.801Z,12.70
2023-03-31T19:24:25.319Z,12.70
2023-03-31T19:26:28.480Z,12.70
2023-03-31T19:28:31.735Z,12.70
2023-03-31T19:30:34.161Z,12.60
2023-03-31T19:32:36.644Z,12.60
2023-03-31T19:34:40.683Z,12.60
2023-03-31T19:36:44.835Z,12.60
2023-03-31T19:38:46.720Z,12.60
2023-03-31T19:40:49.074Z,12.50
2023-03-31T19:42:50.983Z,12.50
2023-03-31T19:44:52.649Z,12.50
2023-03-31T19:46:59.168Z,12.50
2023-03-31T19:49:01.446Z,12.50
2023-03-31T19:51:07.209Z,12.50
2023-03-31T19:53:10.420Z,12.50
2023-03-31T19:55:12.119Z,12.50
2023-03-31T19:57:14.075Z,12.40
2023-03-31T19:59:15.800Z,12.40
2023-03-31T20:01:27.264Z,12.40
2023-03-31T20:03:31.218Z,12.30
2023-03-31T20:05:34.769Z,12.30
2023-03-31T20:07:36.422Z,12.30
2023-03-31T20:09:38.097Z,12.30
2023-03-31T20:11:40.712Z,12.20
2023-03-31T20:13:43.474Z,12.20
2023-03-31T20:15:45.216Z,12.20
2023-03-31T20:17:48.568Z,12.20
2023-03-31T20:19:50.294Z,12.20
2023-03-31T20:21:54.232Z,12.10
2023-03-31T20:23:57.173Z,12.10
2023-03-31T20:26:01.236Z,12.10
2023-03-31T20:28:04.281Z,12.10
2023-03-31T20:30:06.826Z,12.10
2023-03-31T20:32:08.985Z,12.10
2023-03-31T20:34:14.842Z,12.00
2023-03-31T20:36:22.274Z,12.10
2023-03-31T20:38:23.993Z,12.10
2023-03-31T20:40:26.934Z,12.00
2023-03-31T20:42:28.704Z,12.00
2023-03-31T20:44:30.626Z,12.00
2023-03-31T20:46:32.392Z,12.00
2023-03-31T20:48:50.891Z,12.00
2023-03-31T20:50:52.869Z,12.00
2023-03-31T20:52:56.846Z,12.00
2023-03-31T20:54:58.553Z,12.00
2023-03-31T20:57:05.433Z,12.00
2023-03-31T20:59:16.076Z,12.00
2023-03-31T21:01:18.396Z,12.00
2023-03-31T21:03:20.753Z,11.90
2023-03-31T21:05:22.489Z,11.90
2023-03-31T21:07:24.562Z,11.90
2023-03-31T21:09:29.317Z,11.90
2023-03-31T21:11:31.254Z,11.90
2023-03-31T21:13:34.806Z,11.90
2023-03-31T21:15:37.017Z,11.90
2023-03-31T21:17:38.912Z,11.90
2023-03-31T21:19:42.882Z,11.90
2023-03-31T21:21:44.720Z,11.90
2023-03-31T21:23:46.921Z,11.90
2023-03-31T21:25:50.675Z,11.80
2023-03-31T21:27:55.017Z,11.80
2023-03-31T21:29:59.990Z,11.80
2023-03-31T21:32:02.126Z,11.80
2023-03-31T21:34:04.477Z,11.70
2023-03-31T21:36:09.845Z,11.80
2023-03-31T21:38:12.062Z,11.80
2023-03-31T21:40:14.448Z,11.80
2023-03-31T21:42:18.687Z,11.70
2023-03-31T21:44:20.442Z,11.80
2023-03-31T21:46:25.955Z,11.70
2023-03-31T21:48:28.645Z,11.70
2023-03-31T21:50:31.615Z,11.70
2023-03-31T21:52:35.393Z,11.70
2023-03-31T21:54:37.223Z,11.70
2023-03-31T21:56:38.924Z,11.70
2023-03-31T21:58:40.962Z,11.80
2023-03-31T22:00:42.843Z,11.70
2023-03-31T22:02:44.898Z,11.70
2023-03-31T22:04:46.727Z,11.70
2023-03-31T22:06:48.422Z,11.70
2023-03-31T22:08:52.720Z,11.70
2023-03-31T22:10:57.392Z,11.70
2023-03-31T22:13:01.307Z,11.60
2023-03-31T22:15:03.262Z,11.70
2023-03-31T22:17:05.084Z,11.70
2023-03-31T22:19:07.363Z,11.70
2023-03-31T22:21:20.654Z,11.70
2023-03-31T22:23:22.740Z,11.70
2023-03-31T22:25:24.500Z,11.60
2023-03-31T22:27:26.597Z,11.70
2023-03-31T22:29:28.348Z,11.70
2023-03-31T22:31:32.422Z,11.70
2023-03-31T22:33:37.128Z,11.60
2023-03-31T22:35:38.960Z,11.60
2023-03-31T22:37:40.813Z,11.60
2023-03-31T22:39:42.616Z,11.60
2023-03-31T22:41:45.280Z,11.70
2023-03-31T22:43:47.023Z,11.70
2023-03-31T22:45:48.757Z,11.70
2023-03-31T22:47:50.553Z,11.70
2023-03-31T22:49:52.369Z,11.70
2023-03-31T22:51:56.603Z,11.70
2023-03-31T22:53:58.475Z,11.60
2023-03-31T22:56:08.678Z,11.80
2023-03-31T22:58:11.392Z,11.60
2023-03-31T23:00:16.123Z,11.60
2023-03-31T23:02:20.083Z,11.60
2023-03-31T23:04:22.151Z,11.60
2023-03-31T23:06:26.628Z,11.70
2023-03-31T23:08:28.277Z,11.70
2023-03-31T23:10:32.011Z,11.60
2023-03-31T23:12:33.827Z,11.60
2023-03-31T23:14:35.932Z,11.60
2023-03-31T23:16:37.641Z,11.50
2023-03-31T23:18:44.260Z,11.60
2023-03-31T23:20:46.513Z,11.50
2023-03-31T23:22:50.059Z,11.50
2023-03-31T23:24:52.522Z,11.50
2023-03-31T23:26:54.251Z,11.50
2023-03-31T23:28:57.276Z,11.50
2023-03-31T23:30:59.130Z,11.50
2023-03-31T23:33:01.025Z,11.50
2023-03-31T23:35:07.889Z,11.40
2023-03-31T23:37:13.619Z,11.40
2023-03-31T23:39:17.596Z,11.40
2023-03-31T23:41:20.545Z,11.30
2023-03-31T23:43:22.304Z,11.40
2023-03-31T23:45:26.503Z,11.40
2023-03-31T23:47:28.550Z,11.30
2023-03-31T23:49:31.782Z,11.30
2023-03-31T23:51:35.767Z,11.30
2023-03-31T23:53:37.519Z,11.30
2023-03-31T23:55:39.893Z,11.30
2023-03-31T23:57:43.846Z,11.30
2023-03-31T23:59:45.689Z,11.20
